Time;durP1;ratioP1;P1;durP2;ratioP2;P2;SDS_P1;SDS_P2;PMS_P1;PMS_P2;Temp;Humidity;BMP_temperature;BMP_pressure;BME280_temperature;BME280_humidity;BME280_pressure;Samples;Min_cycle;Max_cycle;Signal;HPM_P1;HPM_P2
2022/01/26 00:10:33;;;;;;;39.40;26.33;;;;;;;;;;12500251;28;20046;-77
2022/01/26 00:16:38;;;;;;;36.17;26.00;;;;;;;;;;12501508;28;20049;-76
2022/01/26 00:29:08;;;;;;;41.30;28.92;;;;;;;;;;12499680;28;20041;-76
2022/01/26 00:41:34;;;;;;;44.05;29.83;;;;;;;;;;12498361;28;20032;-75
2022/01/26 00:47:36;;;;;;;43.50;29.02;;;;;;;;;;12498859;28;20061;-75
2022/01/26 00:53:44;;;;;;;42.90;30.23;;;;;;;;;;12498017;28;20486;-76
2022/01/26 00:59:46;;;;;;;41.47;26.67;;;;;;;;;;12499466;28;20036;-76
2022/01/26 01:06:01;;;;;;;40.72;28.02;;;;;;;;;;12497656;28;20040;-76
2022/01/26 01:12:05;;;;;;;44.92;29.75;;;;;;;;;;12498641;28;20048;-76
2022/01/26 01:18:15;;;;;;;37.75;26.27;;;;;;;;;;12499038;28;20041;-76
2022/01/26 01:36:22;;;;;;;39.83;27.63;;;;;;;;;;12497405;28;20037;-76
2022/01/26 01:42:23;;;;;;;52.45;35.25;;;;;;;;;;12496897;28;20034;-76
2022/01/26 01:48:29;;;;;;;44.40;30.23;;;;;;;;;;12496167;28;20053;-76
2022/01/26 01:54:31;;;;;;;47.50;32.53;;;;;;;;;;12494812;28;20037;-76
2022/01/26 02:00:33;;;;;;;48.80;34.10;;;;;;;;;;12496406;28;20042;-76
2022/01/26 02:06:35;;;;;;;40.83;27.40;;;;;;;;;;12495966;28;20060;-75
2022/01/26 02:12:43;;;;;;;42.97;29.70;;;;;;;;;;12497483;28;20037;-76
2022/01/26 02:51:05;;;;;;;68.13;42.88;;;;;;;;;;12497020;28;20049;-76
2022/01/26 02:57:15;;;;;;;60.38;39.88;;;;;;;;;;12497962;28;20045;-76
2022/01/26 03:03:28;;;;;;;46.25;28.80;;;;;;;;;;12505402;28;20493;-76
2022/01/26 03:09:39;;;;;;;41.28;27.92;;;;;;;;;;12509590;28;20050;-76
2022/01/26 03:15:46;;;;;;;51.78;34.45;;;;;;;;;;12507247;28;20037;-76
2022/01/26 03:34:15;;;;;;;59.67;39.30;;;;;;;;;;12512532;28;20029;-76
2022/01/26 03:40:17;;;;;;;53.20;40.88;;;;;;;;;;12517973;28;20038;-76
2022/01/26 03:46:19;;;;;;;45.50;36.50;;;;;;;;;;12508418;28;20084;-76
2022/01/26 03:52:21;;;;;;;53.65;38.58;;;;;;;;;;12506144;28;20038;-76
2022/01/26 03:58:22;;;;;;;37.33;27.17;;;;;;;;;;12506483;28;20033;-77
2022/01/26 04:04:24;;;;;;;40.80;30.10;;;;;;;;;;12509774;28;20438;-77
2022/01/26 04:16:40;;;;;;;39.78;30.90;;;;;;;;;;12500542;28;20052;-76
2022/01/26 04:22:52;;;;;;;37.40;29.73;;;;;;;;;;12483361;28;20037;-76
2022/01/26 04:28:56;;;;;;;42.10;31.52;;;;;;;;;;12500795;28;20057;-76
2022/01/26 04:34:58;;;;;;;30.10;24.35;;;;;;;;;;12499276;28;20060;-76
2022/01/26 04:41:22;;;;;;;35.53;28.63;;;;;;;;;;12500047;28;20033;-77
2022/01/26 04:47:24;;;;;;;30.55;22.55;;;;;;;;;;12499336;28;20057;-75
2022/01/26 04:53:25;;;;;;;35.50;25.48;;;;;;;;;;12499236;28;20036;-76
2022/01/26 04:59:27;;;;;;;28.77;22.50;;;;;;;;;;12499414;28;20029;-76
2022/01/26 05:05:29;;;;;;;30.75;23.00;;;;;;;;;;12497430;28;20030;-75
2022/01/26 05:11:37;;;;;;;34.60;26.48;;;;;;;;;;12498485;28;20052;-76
2022/01/26 05:17:41;;;;;;;29.40;23.60;;;;;;;;;;12497399;28;20044;-75
2022/01/26 05:23:42;;;;;;;36.08;29.92;;;;;;;;;;12498129;28;20044;-76
2022/01/26 05:29:44;;;;;;;58.92;43.72;;;;;;;;;;12496852;28;20041;-76
2022/01/26 05:35:46;;;;;;;38.97;29.73;;;;;;;;;;12496248;28;20044;-76
2022/01/26 05:41:47;;;;;;;43.78;34.42;;;;;;;;;;12495993;28;20034;-75
2022/01/26 05:47:49;;;;;;;46.58;34.60;;;;;;;;;;12497071;28;20498;-76
2022/01/26 05:53:51;;;;;;;39.67;30.85;;;;;;;;;;12495311;28;20037;-76
2022/01/26 05:59:54;;;;;;;26.60;22.13;;;;;;;;;;12495067;28;20037;-77
2022/01/26 06:05:56;;;;;;;29.83;22.90;;;;;;;;;;12494734;28;20041;-77
2022/01/26 06:11:58;;;;;;;24.58;19.08;;;;;;;;;;12494534;28;20041;-76
2022/01/26 06:17:59;;;;;;;32.30;24.77;;;;;;;;;;12494809;28;20041;-76
2022/01/26 06:24:01;;;;;;;37.00;28.25;;;;;;;;;;12477604;28;20403;-77
2022/01/26 06:30:04;;;;;;;33.90;25.92;;;;;;;;;;12494185;28;20410;-77
2022/01/26 06:36:05;;;;;;;40.70;30.80;;;;;;;;;;12493414;28;20396;-77
2022/01/26 06:42:12;;;;;;;38.00;27.63;;;;;;;;;;12494398;28;20033;-79
2022/01/26 06:54:21;;;;;;;38.13;24.55;;;;;;;;;;12494260;28;20064;-79
2022/01/26 07:00:23;;;;;;;35.67;25.87;;;;;;;;;;12484401;28;20044;-79
2022/01/26 07:06:24;;;;;;;36.72;25.40;;;;;;;;;;12483264;28;20036;-80
2022/01/26 07:12:26;;;;;;;32.30;21.85;;;;;;;;;;12485553;28;20473;-79
2022/01/26 07:24:48;;;;;;;40.50;28.48;;;;;;;;;;12467474;28;20050;-77
2022/01/26 07:30:50;;;;;;;33.17;22.35;;;;;;;;;;12469189;28;20193;-77
2022/01/26 07:36:58;;;;;;;45.05;31.33;;;;;;;;;;12494329;28;20033;-77
2022/01/26 07:43:00;;;;;;;42.22;28.35;;;;;;;;;;12470741;28;20025;-76
2022/01/26 07:49:02;;;;;;;34.83;23.83;;;;;;;;;;12476596;28;20069;-76
2022/01/26 07:55:05;;;;;;;48.20;31.20;;;;;;;;;;12485412;28;20076;-76
2022/01/26 08:01:08;;;;;;;54.08;33.63;;;;;;;;;;12481814;28;20041;-74
2022/01/26 08:07:09;;;;;;;53.10;35.30;;;;;;;;;;12487710;28;20041;-75
2022/01/26 08:13:11;;;;;;;68.63;46.63;;;;;;;;;;12487526;28;20045;-75
2022/01/26 08:19:14;;;;;;;52.17;35.58;;;;;;;;;;12489401;28;20030;-75
2022/01/26 08:25:16;;;;;;;;;;;;;;;;;;12484288;28;20033;-76
2022/01/26 08:31:17;;;;;;;49.92;31.98;;;;;;;;;;12505095;28;20405;-76
2022/01/26 08:37:20;;;;;;;47.35;31.75;;;;;;;;;;12487966;28;20533;-76
2022/01/26 08:43:22;;;;;;;52.25;36.65;;;;;;;;;;12478181;28;20042;-76
2022/01/26 08:49:25;;;;;;;44.95;32.20;;;;;;;;;;12489168;28;20041;-76
2022/01/26 08:55:27;;;;;;;47.78;33.97;;;;;;;;;;12484312;28;20029;-76
2022/01/26 09:01:29;;;;;;;44.20;32.85;;;;;;;;;;12475716;28;20037;-76
2022/01/26 09:07:31;;;;;;;38.87;29.57;;;;;;;;;;12463767;28;20556;-76
2022/01/26 09:13:34;;;;;;;45.93;32.87;;;;;;;;;;12494810;28;20045;-76
2022/01/26 09:19:37;;;;;;;48.40;35.63;;;;;;;;;;12490059;28;20029;-76
2022/01/26 09:25:39;;;;;;;33.17;23.57;;;;;;;;;;12462586;28;20041;-74
2022/01/26 09:31:42;;;;;;;42.67;30.25;;;;;;;;;;12466197;28;20072;-75
2022/01/26 09:37:43;;;;;;;35.25;27.05;;;;;;;;;;12495947;28;20045;-74
2022/01/26 09:43:46;;;;;;;41.17;28.90;;;;;;;;;;12490325;28;20029;-78
2022/01/26 09:49:49;;;;;;;38.42;27.30;;;;;;;;;;12487678;28;20053;-76
2022/01/26 09:55:51;;;;;;;68.15;34.10;;;;;;;;;;12466511;28;20034;-75
2022/01/26 10:01:53;;;;;;;44.30;34.90;;;;;;;;;;12519527;28;20048;-75
2022/01/26 10:20:19;;;;;;;39.78;30.02;;;;;;;;;;12484333;28;19917;-78
2022/01/26 10:26:21;;;;;;;38.08;29.38;;;;;;;;;;12480807;28;20124;-77
2022/01/26 10:32:31;;;;;;;41.75;31.05;;;;;;;;;;12486711;28;20034;-81
2022/01/26 10:38:33;;;;;;;44.58;32.70;;;;;;;;;;12477334;28;20384;-75
2022/01/26 10:44:40;;;;;;;36.67;28.13;;;;;;;;;;12511331;28;20033;-76
2022/01/26 10:50:48;;;;;;;39.35;28.80;;;;;;;;;;12479500;28;20129;-76
2022/01/26 10:56:50;;;;;;;44.65;32.78;;;;;;;;;;12474203;28;20589;-76
2022/01/26 11:02:57;;;;;;;33.90;25.00;;;;;;;;;;12481567;28;20037;-76
2022/01/26 11:09:02;;;;;;;40.42;31.50;;;;;;;;;;12479637;28;20411;-76
2022/01/26 11:15:09;;;;;;;34.22;26.92;;;;;;;;;;12480841;28;20032;-76
2022/01/26 11:21:14;;;;;;;41.67;30.30;;;;;;;;;;12484865;28;20586;-77
2022/01/26 11:27:17;;;;;;;47.08;35.13;;;;;;;;;;12483424;28;20038;-77
2022/01/26 11:33:21;;;;;;;40.03;31.42;;;;;;;;;;12488917;28;20556;-75
2022/01/26 11:45:43;;;;;;;41.83;32.92;;;;;;;;;;12487891;28;20049;-76
2022/01/26 11:51:51;;;;;;;43.03;30.83;;;;;;;;;;12469063;28;20053;-77
2022/01/26 11:57:54;;;;;;;40.00;30.58;;;;;;;;;;12479023;28;20029;-76
2022/01/26 12:04:03;;;;;;;35.03;28.27;;;;;;;;;;12490721;28;20044;-77
2022/01/26 12:10:05;;;;;;;35.10;27.55;;;;;;;;;;12495655;28;20367;-78
2022/01/26 12:16:23;;;;;;;41.13;31.83;;;;;;;;;;12491544;28;20025;-77
2022/01/26 12:35:46;;;;;;;37.45;28.60;;;;;;;;;;12498191;28;20029;-76
2022/01/26 12:41:52;;;;;;;40.40;30.02;;;;;;;;;;12500021;28;20033;-77
2022/01/26 12:47:56;;;;;;;34.58;28.50;;;;;;;;;;12498723;28;20145;-77
2022/01/26 12:54:00;;;;;;;35.70;27.70;;;;;;;;;;12481921;28;20513;-76
2022/01/26 13:00:03;;;;;;;33.75;26.75;;;;;;;;;;12498655;28;20063;-75
2022/01/26 13:06:09;;;;;;;36.78;29.55;;;;;;;;;;12497719;28;20483;-76
2022/01/26 13:12:12;;;;;;;34.28;26.10;;;;;;;;;;12497399;28;20422;-77
2022/01/26 13:18:18;;;;;;;29.52;23.48;;;;;;;;;;12497021;28;20496;-76
2022/01/26 14:01:41;;;;;;;31.08;24.40;;;;;;;;;;12495755;28;20041;-77
2022/01/26 14:07:42;;;;;;;32.70;25.45;;;;;;;;;;12478211;28;20042;-75
2022/01/26 14:13:45;;;;;;;32.53;25.75;;;;;;;;;;12495004;28;20044;-76
2022/01/26 14:25:55;;;;;;;33.42;27.52;;;;;;;;;;12495414;28;20052;-75
2022/01/26 14:32:13;;;;;;;36.15;28.70;;;;;;;;;;12494574;28;20041;-76
2022/01/26 15:29:55;;;;;;;34.55;26.60;;;;;;;;;;12492491;28;20379;-76
2022/01/26 15:41:49;;;;;;;31.60;25.90;;;;;;;;;;12493280;28;20033;-76
2022/01/26 16:19:58;;;;;;;36.17;26.83;;;;;;;;;;12499626;28;20038;-76
2022/01/26 17:47:44;;;;;;;46.28;38.28;;;;;;;;;;12496693;28;20064;-76
2022/01/26 18:49:51;;;;;;;47.25;37.33;;;;;;;;;;12493559;28;20057;-76
2022/01/26 18:55:53;;;;;;;44.15;35.75;;;;;;;;;;12494576;28;20057;-76
2022/01/26 19:01:56;;;;;;;43.80;34.60;;;;;;;;;;12493827;28;20496;-76
2022/01/26 19:07:58;;;;;;;41.90;33.47;;;;;;;;;;12492870;28;20032;-75
2022/01/26 19:14:17;;;;;;;44.38;35.88;;;;;;;;;;12637566;27;20547;-76
2022/01/26 19:26:30;;;;;;;45.40;33.92;;;;;;;;;;12636551;28;20036;-76
2022/01/26 19:51:04;;;;;;;43.92;33.38;;;;;;;;;;12635420;28;20052;-76
2022/01/26 19:57:08;;;;;;;43.17;34.53;;;;;;;;;;12634947;28;20481;-75
2022/01/26 20:03:10;;;;;;;44.53;34.70;;;;;;;;;;12634791;28;20029;-76
2022/01/26 20:09:20;;;;;;;48.00;38.83;;;;;;;;;;12616669;28;20417;-76
2022/01/26 20:15:22;;;;;;;46.85;37.45;;;;;;;;;;12634200;28;20036;-76
2022/01/26 20:21:23;;;;;;;53.70;41.38;;;;;;;;;;12606356;28;20047;-76
2022/01/26 20:27:25;;;;;;;47.65;37.83;;;;;;;;;;12600331;28;20047;-76
2022/01/26 20:33:27;;;;;;;44.95;34.67;;;;;;;;;;12582187;28;20040;-76
2022/01/26 20:39:28;;;;;;;49.97;38.53;;;;;;;;;;12599896;28;20040;-75
2022/01/26 20:45:30;;;;;;;47.08;36.75;;;;;;;;;;12581640;28;20037;-75
2022/01/26 20:51:34;;;;;;;43.87;36.83;;;;;;;;;;12582147;28;20044;-76
2022/01/26 20:57:37;;;;;;;39.83;33.55;;;;;;;;;;12581121;28;20043;-76
2022/01/26 21:03:39;;;;;;;45.00;35.55;;;;;;;;;;12564246;28;20117;-76
2022/01/26 21:09:40;;;;;;;43.45;34.38;;;;;;;;;;12563686;28;20436;-75
2022/01/26 21:15:42;;;;;;;43.08;35.10;;;;;;;;;;12598095;28;20033;-74
2022/01/26 21:21:44;;;;;;;43.85;35.33;;;;;;;;;;12563730;28;20043;-75
2022/01/26 21:27:46;;;;;;;33.50;29.58;;;;;;;;;;12579915;28;20046;-76
2022/01/26 21:33:48;;;;;;;32.72;28.55;;;;;;;;;;12578602;28;20413;-76
2022/01/26 21:39:50;;;;;;;36.93;31.60;;;;;;;;;;12562760;28;20052;-76
2022/01/26 21:45:51;;;;;;;39.05;32.53;;;;;;;;;;12596581;28;20036;-76
2022/01/26 21:51:53;;;;;;;47.85;38.90;;;;;;;;;;12562785;28;20044;-76
2022/01/26 21:57:55;;;;;;;45.08;36.78;;;;;;;;;;12578265;28;20032;-76
2022/01/26 22:03:56;;;;;;;42.08;36.13;;;;;;;;;;12596027;28;20036;-76
2022/01/26 22:09:58;;;;;;;46.53;37.58;;;;;;;;;;12560917;28;20505;-76
2022/01/26 22:16:00;;;;;;;41.78;34.63;;;;;;;;;;12577232;28;20039;-76
2022/01/26 22:22:01;;;;;;;46.42;37.45;;;;;;;;;;12594995;28;20032;-76
2022/01/26 22:28:13;;;;;;;43.28;35.97;;;;;;;;;;12594668;28;20474;-76
2022/01/26 22:34:14;;;;;;;40.38;32.55;;;;;;;;;;12577280;28;20055;-76
2022/01/26 22:40:16;;;;;;;42.88;35.70;;;;;;;;;;12595138;28;20036;-76
2022/01/26 22:46:18;;;;;;;43.80;35.60;;;;;;;;;;12576162;28;20036;-76
2022/01/26 22:52:19;;;;;;;48.22;39.00;;;;;;;;;;12559498;28;20044;-76
2022/01/26 22:58:21;;;;;;;41.35;34.75;;;;;;;;;;12559325;28;20036;-76
2022/01/26 23:04:25;;;;;;;40.60;34.60;;;;;;;;;;12575884;28;20043;-76
2022/01/26 23:10:27;;;;;;;47.67;37.85;;;;;;;;;;12575395;28;20059;-76
2022/01/26 23:16:30;;;;;;;36.42;29.52;;;;;;;;;;12575778;28;20401;-76
2022/01/26 23:22:37;;;;;;;50.90;43.15;;;;;;;;;;12575026;28;20048;-76
2022/01/26 23:29:45;;;;;;;41.47;35.67;;;;;;;;;;12575696;28;20036;-76
2022/01/26 23:35:35;;;;;;;42.10;34.05;;;;;;;;;;12561924;28;20051;-76
2022/01/26 23:42:46;;;;;;;44.85;37.67;;;;;;;;;;12575682;28;20056;-76
